CYKG

Kangiqsujuaq (Wakeham Bay) Airport

Kangiqsujuaq, Quebec, Canada
METAR CYKG 212100Z 12005KT 15SM FEW110 FEW240 M06/M11 A3017 RMK AC1CI1 AC TR CI TR SN COV/MEDIUM PACK LAST STFD OBS/NEXT 221200 UTC SLP236
Observed Flight Rules
Apr-21 @ 21:00 UTC (10 hours ago) Visual Flight Rules
Wind Visibility Clouds
120° at 5 knots 15 miles
  • Few at 11,000' AGL
  • Few at 24,000' AGL
Temperatures Readings
Current -6°C / 21°F
Dewpoint -11°C / 12°F
Humidity 68%
Altimeter 30.17" Hg
Pressure 1023.6 hPa
Elevation 151
METAR CYKG 212100Z 12005KT 15SM FEW110 FEW240 M06/M11 A3017 RMK AC1CI1 AC TR CI TR SN COV/MEDIUM PACK LAST STFD OBS/NEXT 221200 UTC SLP236
Observed Flight Rules
Apr-21 @ 21:00 UTC
(10 hours ago)
VFR
Wind Visibility
120° at 5 knots 15 miles
Clouds
  • Few at 11,000' AGL
  • Few at 24,000' AGL
Temperature Dewpoint
-6°C / 21°F -11°C / 12°F
Humidity Altimeter Pressure
68% 30.17" Hg 1023.6 hPa